sensor_id;sensor_type;location;lat;lon;timestamp;P1;durP1;ratioP1;P2;durP2;ratioP2
68225;SDS011;55045;49.410;11.030;2023-02-04T00:01:05;11.90;;;3.00;;
68225;SDS011;55045;49.410;11.030;2023-02-04T00:04:12;8.00;;;2.53;;
68225;SDS011;55045;49.410;11.030;2023-02-04T00:07:20;13.35;;;3.45;;
68225;SDS011;55045;49.410;11.030;2023-02-04T00:10:26;12.68;;;2.97;;
68225;SDS011;55045;49.410;11.030;2023-02-04T00:13:30;10.57;;;2.65;;
68225;SDS011;55045;49.410;11.030;2023-02-04T00:16:35;9.43;;;2.33;;
68225;SDS011;55045;49.410;11.030;2023-02-04T00:19:43;8.75;;;2.80;;
68225;SDS011;55045;49.410;11.030;2023-02-04T00:22:48;10.68;;;3.00;;
68225;SDS011;55045;49.410;11.030;2023-02-04T00:25:58;10.23;;;2.67;;
68225;SDS011;55045;49.410;11.030;2023-02-04T00:29:02;13.00;;;2.95;;
68225;SDS011;55045;49.410;11.030;2023-02-04T00:32:06;11.10;;;3.35;;
68225;SDS011;55045;49.410;11.030;2023-02-04T00:35:10;7.10;;;2.45;;
68225;SDS011;55045;49.410;11.030;2023-02-04T00:38:16;10.23;;;3.10;;
68225;SDS011;55045;49.410;11.030;2023-02-04T00:41:20;12.60;;;4.03;;
68225;SDS011;55045;49.410;11.030;2023-02-04T00:44:24;11.23;;;3.67;;
68225;SDS011;55045;49.410;11.030;2023-02-04T00:47:28;13.70;;;3.60;;
68225;SDS011;55045;49.410;11.030;2023-02-04T00:50:31;11.85;;;3.42;;
68225;SDS011;55045;49.410;11.030;2023-02-04T00:53:37;15.55;;;4.13;;
68225;SDS011;55045;49.410;11.030;2023-02-04T00:56:41;13.88;;;3.40;;
68225;SDS011;55045;49.410;11.030;2023-02-04T00:59:45;10.05;;;3.22;;
68225;SDS011;55045;49.410;11.030;2023-02-04T01:02:49;10.25;;;3.25;;
68225;SDS011;55045;49.410;11.030;2023-02-04T01:05:53;14.50;;;3.15;;
68225;SDS011;55045;49.410;11.030;2023-02-04T01:08:58;12.23;;;3.38;;
68225;SDS011;55045;49.410;11.030;2023-02-04T01:12:03;19.70;;;3.22;;
68225;SDS011;55045;49.410;11.030;2023-02-04T01:15:09;17.40;;;3.63;;
68225;SDS011;55045;49.410;11.030;2023-02-04T01:18:14;10.57;;;3.50;;
68225;SDS011;55045;49.410;11.030;2023-02-04T01:21:17;13.73;;;3.13;;
68225;SDS011;55045;49.410;11.030;2023-02-04T01:24:22;9.00;;;2.38;;
68225;SDS011;55045;49.410;11.030;2023-02-04T01:27:44;10.13;;;2.50;;
68225;SDS011;55045;49.410;11.030;2023-02-04T01:30:53;15.25;;;2.50;;
68225;SDS011;55045;49.410;11.030;2023-02-04T01:34:00;13.38;;;3.10;;
68225;SDS011;55045;49.410;11.030;2023-02-04T01:37:10;11.55;;;2.72;;
68225;SDS011;55045;49.410;11.030;2023-02-04T01:40:28;8.35;;;2.40;;
68225;SDS011;55045;49.410;11.030;2023-02-04T01:43:33;11.57;;;2.55;;
68225;SDS011;55045;49.410;11.030;2023-02-04T01:46:41;13.68;;;2.58;;
68225;SDS011;55045;49.410;11.030;2023-02-04T01:49:47;11.82;;;2.90;;
68225;SDS011;55045;49.410;11.030;2023-02-04T01:52:55;7.55;;;2.03;;
68225;SDS011;55045;49.410;11.030;2023-02-04T01:56:17;10.80;;;3.15;;
68225;SDS011;55045;49.410;11.030;2023-02-04T01:59:28;9.43;;;2.65;;
68225;SDS011;55045;49.410;11.030;2023-02-04T02:02:40;10.88;;;2.35;;
68225;SDS011;55045;49.410;11.030;2023-02-04T02:05:47;12.37;;;2.30;;
68225;SDS011;55045;49.410;11.030;2023-02-04T02:08:55;9.00;;;2.35;;
68225;SDS011;55045;49.410;11.030;2023-02-04T02:12:03;8.82;;;2.38;;
68225;SDS011;55045;49.410;11.030;2023-02-04T02:15:12;15.35;;;2.70;;
68225;SDS011;55045;49.410;11.030;2023-02-04T02:18:17;9.25;;;2.22;;
68225;SDS011;55045;49.410;11.030;2023-02-04T02:21:23;13.57;;;2.33;;
68225;SDS011;55045;49.410;11.030;2023-02-04T02:24:35;10.98;;;2.58;;
68225;SDS011;55045;49.410;11.030;2023-02-04T02:27:41;11.85;;;3.00;;
68225;SDS011;55045;49.410;11.030;2023-02-04T02:30:47;13.65;;;3.03;;
68225;SDS011;55045;49.410;11.030;2023-02-04T02:33:51;18.50;;;3.38;;
68225;SDS011;55045;49.410;11.030;2023-02-04T02:36:56;13.77;;;3.03;;
68225;SDS011;55045;49.410;11.030;2023-02-04T02:40:02;14.98;;;3.17;;
68225;SDS011;55045;49.410;11.030;2023-02-04T02:43:08;10.77;;;2.90;;
68225;SDS011;55045;49.410;11.030;2023-02-04T02:46:16;10.93;;;2.58;;
68225;SDS011;55045;49.410;11.030;2023-02-04T02:49:22;12.15;;;2.38;;
68225;SDS011;55045;49.410;11.030;2023-02-04T02:52:28;11.35;;;2.60;;
68225;SDS011;55045;49.410;11.030;2023-02-04T02:55:33;11.27;;;2.20;;
68225;SDS011;55045;49.410;11.030;2023-02-04T02:58:38;11.48;;;2.20;;
68225;SDS011;55045;49.410;11.030;2023-02-04T03:01:43;10.85;;;2.40;;
68225;SDS011;55045;49.410;11.030;2023-02-04T03:04:52;10.43;;;2.03;;
68225;SDS011;55045;49.410;11.030;2023-02-04T03:08:04;8.70;;;2.03;;
68225;SDS011;55045;49.410;11.030;2023-02-04T03:11:12;7.10;;;1.70;;
68225;SDS011;55045;49.410;11.030;2023-02-04T03:14:16;11.70;;;2.85;;
68225;SDS011;55045;49.410;11.030;2023-02-04T03:17:22;11.55;;;1.92;;
68225;SDS011;55045;49.410;11.030;2023-02-04T03:20:27;9.02;;;1.45;;
68225;SDS011;55045;49.410;11.030;2023-02-04T03:23:33;7.32;;;1.95;;
68225;SDS011;55045;49.410;11.030;2023-02-04T03:26:43;11.35;;;2.40;;
68225;SDS011;55045;49.410;11.030;2023-02-04T03:29:48;5.70;;;1.90;;
68225;SDS011;55045;49.410;11.030;2023-02-04T03:32:52;11.05;;;2.05;;
68225;SDS011;55045;49.410;11.030;2023-02-04T03:35:56;14.25;;;2.25;;
68225;SDS011;55045;49.410;11.030;2023-02-04T03:39:01;11.98;;;2.20;;
68225;SDS011;55045;49.410;11.030;2023-02-04T03:42:07;13.60;;;2.92;;
68225;SDS011;55045;49.410;11.030;2023-02-04T03:45:11;8.75;;;2.33;;
68225;SDS011;55045;49.410;11.030;2023-02-04T03:48:15;13.40;;;2.70;;
68225;SDS011;55045;49.410;11.030;2023-02-04T03:51:19;8.80;;;2.85;;
68225;SDS011;55045;49.410;11.030;2023-02-04T03:54:22;6.45;;;2.05;;
68225;SDS011;55045;49.410;11.030;2023-02-04T03:57:29;10.75;;;2.50;;
68225;SDS011;55045;49.410;11.030;2023-02-04T04:00:32;15.60;;;3.38;;
68225;SDS011;55045;49.410;11.030;2023-02-04T04:03:38;14.40;;;3.13;;
68225;SDS011;55045;49.410;11.030;2023-02-04T04:06:42;14.77;;;3.20;;
68225;SDS011;55045;49.410;11.030;2023-02-04T04:09:46;16.38;;;3.50;;
68225;SDS011;55045;49.410;11.030;2023-02-04T04:12:52;16.73;;;3.10;;
68225;SDS011;55045;49.410;11.030;2023-02-04T04:15:56;13.20;;;3.17;;
68225;SDS011;55045;49.410;11.030;2023-02-04T04:19:00;11.40;;;4.03;;
68225;SDS011;55045;49.410;11.030;2023-02-04T04:22:04;13.38;;;3.60;;
68225;SDS011;55045;49.410;11.030;2023-02-04T04:25:08;15.13;;;3.33;;
68225;SDS011;55045;49.410;11.030;2023-02-04T04:28:14;14.60;;;3.25;;
68225;SDS011;55045;49.410;11.030;2023-02-04T04:34:25;13.80;;;3.13;;
68225;SDS011;55045;49.410;11.030;2023-02-04T04:37:29;7.68;;;2.70;;
68225;SDS011;55045;49.410;11.030;2023-02-04T04:40:32;11.13;;;2.95;;
68225;SDS011;55045;49.410;11.030;2023-02-04T04:43:35;12.60;;;2.80;;
68225;SDS011;55045;49.410;11.030;2023-02-04T04:46:39;13.48;;;3.22;;
68225;SDS011;55045;49.410;11.030;2023-02-04T04:49:45;12.25;;;2.92;;
68225;SDS011;55045;49.410;11.030;2023-02-04T04:52:48;11.90;;;3.15;;
68225;SDS011;55045;49.410;11.030;2023-02-04T04:55:52;15.20;;;4.05;;
68225;SDS011;55045;49.410;11.030;2023-02-04T04:58:55;19.67;;;3.28;;
68225;SDS011;55045;49.410;11.030;2023-02-04T05:02:01;15.35;;;2.65;;
68225;SDS011;55045;49.410;11.030;2023-02-04T05:05:06;9.35;;;2.25;;
68225;SDS011;55045;49.410;11.030;2023-02-04T05:08:10;19.20;;;3.08;;
68225;SDS011;55045;49.410;11.030;2023-02-04T05:11:20;11.82;;;2.15;;
68225;SDS011;55045;49.410;11.030;2023-02-04T05:14:23;11.25;;;2.80;;
68225;SDS011;55045;49.410;11.030;2023-02-04T05:17:27;15.02;;;2.45;;
68225;SDS011;55045;49.410;11.030;2023-02-04T05:20:32;9.50;;;2.15;;
68225;SDS011;55045;49.410;11.030;2023-02-04T05:23:35;13.50;;;2.38;;
68225;SDS011;55045;49.410;11.030;2023-02-04T05:30:16;16.33;;;2.60;;
68225;SDS011;55045;49.410;11.030;2023-02-04T05:33:20;12.90;;;2.35;;
68225;SDS011;55045;49.410;11.030;2023-02-04T05:36:26;15.48;;;2.90;;
68225;SDS011;55045;49.410;11.030;2023-02-04T05:39:30;10.35;;;2.08;;
68225;SDS011;55045;49.410;11.030;2023-02-04T05:42:33;18.58;;;2.65;;
68225;SDS011;55045;49.410;11.030;2023-02-04T05:45:37;14.27;;;2.40;;
68225;SDS011;55045;49.410;11.030;2023-02-04T05:48:40;11.65;;;2.47;;
68225;SDS011;55045;49.410;11.030;2023-02-04T05:51:45;13.55;;;2.40;;
68225;SDS011;55045;49.410;11.030;2023-02-04T05:54:48;9.30;;;2.53;;
68225;SDS011;55045;49.410;11.030;2023-02-04T05:57:52;14.90;;;2.70;;
68225;SDS011;55045;49.410;11.030;2023-02-04T06:00:55;10.50;;;2.33;;
68225;SDS011;55045;49.410;11.030;2023-02-04T06:03:59;13.07;;;2.55;;
68225;SDS011;55045;49.410;11.030;2023-02-04T06:07:03;11.45;;;2.75;;
68225;SDS011;55045;49.410;11.030;2023-02-04T06:10:08;16.55;;;2.00;;
68225;SDS011;55045;49.410;11.030;2023-02-04T06:13:14;11.02;;;1.92;;
68225;SDS011;55045;49.410;11.030;2023-02-04T06:16:18;14.70;;;2.17;;
68225;SDS011;55045;49.410;11.030;2023-02-04T06:19:22;13.90;;;2.50;;
68225;SDS011;55045;49.410;11.030;2023-02-04T06:22:28;12.32;;;2.55;;
68225;SDS011;55045;49.410;11.030;2023-02-04T06:25:32;14.57;;;3.92;;
68225;SDS011;55045;49.410;11.030;2023-02-04T06:28:36;10.00;;;2.45;;
68225;SDS011;55045;49.410;11.030;2023-02-04T06:31:49;9.88;;;2.05;;
68225;SDS011;55045;49.410;11.030;2023-02-04T06:34:52;9.93;;;2.00;;
68225;SDS011;55045;49.410;11.030;2023-02-04T06:37:57;7.72;;;1.80;;
68225;SDS011;55045;49.410;11.030;2023-02-04T06:41:01;9.70;;;1.75;;
68225;SDS011;55045;49.410;11.030;2023-02-04T06:44:04;9.68;;;1.73;;
68225;SDS011;55045;49.410;11.030;2023-02-04T06:47:11;8.43;;;1.88;;
68225;SDS011;55045;49.410;11.030;2023-02-04T06:50:15;9.00;;;2.10;;
68225;SDS011;55045;49.410;11.030;2023-02-04T06:53:21;6.30;;;1.00;;
68225;SDS011;55045;49.410;11.030;2023-02-04T06:56:25;5.90;;;1.42;;
68225;SDS011;55045;49.410;11.030;2023-02-04T06:59:30;3.03;;;1.15;;
68225;SDS011;55045;49.410;11.030;2023-02-04T07:02:34;3.30;;;1.33;;
68225;SDS011;55045;49.410;11.030;2023-02-04T07:05:41;3.17;;;1.27;;
68225;SDS011;55045;49.410;11.030;2023-02-04T07:08:46;2.70;;;1.02;;
68225;SDS011;55045;49.410;11.030;2023-02-04T07:11:50;0.98;;;0.98;;
68225;SDS011;55045;49.410;11.030;2023-02-04T07:14:54;1.73;;;1.13;;
68225;SDS011;55045;49.410;11.030;2023-02-04T07:18:02;2.03;;;1.10;;
68225;SDS011;55045;49.410;11.030;2023-02-04T07:21:05;3.10;;;1.30;;
68225;SDS011;55045;49.410;11.030;2023-02-04T07:24:13;2.08;;;1.10;;
68225;SDS011;55045;49.410;11.030;2023-02-04T07:27:17;3.25;;;1.35;;
68225;SDS011;55045;49.410;11.030;2023-02-04T07:30:20;3.95;;;1.90;;
68225;SDS011;55045;49.410;11.030;2023-02-04T07:33:24;2.00;;;1.50;;
68225;SDS011;55045;49.410;11.030;2023-02-04T07:36:30;3.17;;;1.83;;
68225;SDS011;55045;49.410;11.030;2023-02-04T07:39:39;2.85;;;1.50;;
68225;SDS011;55045;49.410;11.030;2023-02-04T07:42:44;2.88;;;1.48;;
68225;SDS011;55045;49.410;11.030;2023-02-04T07:45:52;3.80;;;1.60;;
68225;SDS011;55045;49.410;11.030;2023-02-04T07:48:59;2.17;;;1.65;;
68225;SDS011;55045;49.410;11.030;2023-02-04T07:52:03;4.78;;;1.80;;
68225;SDS011;55045;49.410;11.030;2023-02-04T07:55:09;4.03;;;1.50;;
68225;SDS011;55045;49.410;11.030;2023-02-04T07:58:13;2.45;;;1.50;;
68225;SDS011;55045;49.410;11.030;2023-02-04T08:01:18;3.05;;;1.90;;
68225;SDS011;55045;49.410;11.030;2023-02-04T08:04:21;2.60;;;1.60;;
68225;SDS011;55045;49.410;11.030;2023-02-04T08:07:25;1.65;;;1.40;;
68225;SDS011;55045;49.410;11.030;2023-02-04T08:10:32;3.13;;;1.60;;
68225;SDS011;55045;49.410;11.030;2023-02-04T08:13:38;4.60;;;2.10;;
68225;SDS011;55045;49.410;11.030;2023-02-04T08:16:51;2.00;;;1.67;;
68225;SDS011;55045;49.410;11.030;2023-02-04T08:19:57;2.63;;;1.88;;
68225;SDS011;55045;49.410;11.030;2023-02-04T08:23:06;2.85;;;2.00;;
68225;SDS011;55045;49.410;11.030;2023-02-04T08:29:45;3.58;;;2.05;;
68225;SDS011;55045;49.410;11.030;2023-02-04T08:32:50;2.13;;;1.63;;
68225;SDS011;55045;49.410;11.030;2023-02-04T08:35:54;2.15;;;1.50;;
68225;SDS011;55045;49.410;11.030;2023-02-04T08:39:06;3.80;;;1.88;;
68225;SDS011;55045;49.410;11.030;2023-02-04T08:42:14;3.25;;;2.30;;
68225;SDS011;55045;49.410;11.030;2023-02-04T08:45:18;3.13;;;2.00;;
68225;SDS011;55045;49.410;11.030;2023-02-04T08:48:44;2.38;;;1.80;;
68225;SDS011;55045;49.410;11.030;2023-02-04T08:51:51;3.55;;;2.50;;
68225;SDS011;55045;49.410;11.030;2023-02-04T08:55:08;2.00;;;1.80;;
68225;SDS011;55045;49.410;11.030;2023-02-04T08:58:33;3.63;;;2.40;;
68225;SDS011;55045;49.410;11.030;2023-02-04T09:02:26;2.30;;;2.00;;
68225;SDS011;55045;49.410;11.030;2023-02-04T09:05:37;4.10;;;2.58;;
68225;SDS011;55045;49.410;11.030;2023-02-04T09:08:56;3.20;;;2.15;;
68225;SDS011;55045;49.410;11.030;2023-02-04T09:12:06;5.38;;;2.97;;
68225;SDS011;55045;49.410;11.030;2023-02-04T09:15:14;5.03;;;2.40;;
68225;SDS011;55045;49.410;11.030;2023-02-04T09:18:20;2.58;;;2.20;;
68225;SDS011;55045;49.410;11.030;2023-02-04T09:25:05;1.88;;;1.63;;
68225;SDS011;55045;49.410;11.030;2023-02-04T09:28:12;4.32;;;1.50;;
68225;SDS011;55045;49.410;11.030;2023-02-04T09:31:19;2.03;;;1.50;;
68225;SDS011;55045;49.410;11.030;2023-02-04T09:34:26;1.73;;;1.30;;
68225;SDS011;55045;49.410;11.030;2023-02-04T09:37:32;2.10;;;1.70;;
68225;SDS011;55045;49.410;11.030;2023-02-04T09:40:46;1.67;;;1.30;;
68225;SDS011;55045;49.410;11.030;2023-02-04T09:43:57;2.13;;;1.45;;
68225;SDS011;55045;49.410;11.030;2023-02-04T09:47:08;1.90;;;1.50;;
68225;SDS011;55045;49.410;11.030;2023-02-04T09:50:16;1.45;;;1.35;;
68225;SDS011;55045;49.410;11.030;2023-02-04T09:53:25;2.50;;;1.25;;
68225;SDS011;55045;49.410;11.030;2023-02-04T09:56:29;1.63;;;1.30;;
68225;SDS011;55045;49.410;11.030;2023-02-04T09:59:34;1.73;;;1.35;;
68225;SDS011;55045;49.410;11.030;2023-02-04T10:02:40;2.05;;;1.30;;
68225;SDS011;55045;49.410;11.030;2023-02-04T10:05:43;1.70;;;1.17;;
68225;SDS011;55045;49.410;11.030;2023-02-04T10:09:00;2.42;;;1.30;;
68225;SDS011;55045;49.410;11.030;2023-02-04T10:12:04;1.55;;;1.20;;
68225;SDS011;55045;49.410;11.030;2023-02-04T10:15:11;2.17;;;1.40;;
68225;SDS011;55045;49.410;11.030;2023-02-04T10:18:26;1.45;;;1.25;;
68225;SDS011;55045;49.410;11.030;2023-02-04T10:21:34;3.20;;;1.20;;
68225;SDS011;55045;49.410;11.030;2023-02-04T10:24:41;1.13;;;1.00;;
68225;SDS011;55045;49.410;11.030;2023-02-04T10:27:48;4.00;;;2.13;;
68225;SDS011;55045;49.410;11.030;2023-02-04T10:34:31;1.63;;;1.40;;
68225;SDS011;55045;49.410;11.030;2023-02-04T10:37:45;1.60;;;1.20;;
68225;SDS011;55045;49.410;11.030;2023-02-04T10:40:58;3.95;;;1.75;;
68225;SDS011;55045;49.410;11.030;2023-02-04T10:47:38;2.72;;;1.30;;
68225;SDS011;55045;49.410;11.030;2023-02-04T10:54:22;2.13;;;1.45;;
68225;SDS011;55045;49.410;11.030;2023-02-04T10:57:36;1.42;;;1.00;;
68225;SDS011;55045;49.410;11.030;2023-02-04T11:00:41;2.47;;;1.83;;
68225;SDS011;55045;49.410;11.030;2023-02-04T11:03:45;2.28;;;1.52;;
68225;SDS011;55045;49.410;11.030;2023-02-04T11:06:54;1.42;;;1.30;;
68225;SDS011;55045;49.410;11.030;2023-02-04T11:09:58;1.88;;;1.20;;
68225;SDS011;55045;49.410;11.030;2023-02-04T11:13:02;6.20;;;1.20;;
68225;SDS011;55045;49.410;11.030;2023-02-04T11:16:12;5.10;;;1.85;;
68225;SDS011;55045;49.410;11.030;2023-02-04T11:19:34;1.92;;;1.10;;
68225;SDS011;55045;49.410;11.030;2023-02-04T11:22:46;5.85;;;2.97;;
68225;SDS011;55045;49.410;11.030;2023-02-04T11:26:02;1.20;;;1.10;;
68225;SDS011;55045;49.410;11.030;2023-02-04T11:32:36;2.55;;;1.60;;
68225;SDS011;55045;49.410;11.030;2023-02-04T11:35:41;4.22;;;2.63;;
68225;SDS011;55045;49.410;11.030;2023-02-04T11:39:14;1.30;;;1.13;;
68225;SDS011;55045;49.410;11.030;2023-02-04T11:42:26;1.10;;;1.00;;
68225;SDS011;55045;49.410;11.030;2023-02-04T11:45:34;1.58;;;1.40;;
68225;SDS011;55045;49.410;11.030;2023-02-04T11:48:43;1.10;;;1.00;;
68225;SDS011;55045;49.410;11.030;2023-02-04T11:51:47;2.05;;;1.30;;
68225;SDS011;55045;49.410;11.030;2023-02-04T11:54:59;1.10;;;1.00;;
68225;SDS011;55045;49.410;11.030;2023-02-04T11:58:03;1.00;;;1.00;;
68225;SDS011;55045;49.410;11.030;2023-02-04T12:01:18;1.33;;;1.15;;
68225;SDS011;55045;49.410;11.030;2023-02-04T12:04:33;3.50;;;1.30;;
68225;SDS011;55045;49.410;11.030;2023-02-04T12:07:37;2.35;;;1.00;;
68225;SDS011;55045;49.410;11.030;2023-02-04T12:11:01;1.38;;;1.20;;
68225;SDS011;55045;49.410;11.030;2023-02-04T12:14:09;1.98;;;1.10;;
68225;SDS011;55045;49.410;11.030;2023-02-04T12:17:16;1.02;;;0.90;;
68225;SDS011;55045;49.410;11.030;2023-02-04T12:20:25;1.90;;;1.00;;
68225;SDS011;55045;49.410;11.030;2023-02-04T12:23:32;2.72;;;1.30;;
68225;SDS011;55045;49.410;11.030;2023-02-04T12:26:41;1.88;;;1.50;;
68225;SDS011;55045;49.410;11.030;2023-02-04T12:29:44;1.45;;;1.10;;
68225;SDS011;55045;49.410;11.030;2023-02-04T12:32:54;1.40;;;1.20;;
68225;SDS011;55045;49.410;11.030;2023-02-04T12:36:02;2.35;;;1.58;;
68225;SDS011;55045;49.410;11.030;2023-02-04T12:39:09;1.48;;;1.20;;
68225;SDS011;55045;49.410;11.030;2023-02-04T12:42:18;1.67;;;1.45;;
68225;SDS011;55045;49.410;11.030;2023-02-04T12:45:23;1.70;;;1.60;;
68225;SDS011;55045;49.410;11.030;2023-02-04T12:48:29;1.30;;;1.20;;
68225;SDS011;55045;49.410;11.030;2023-02-04T12:51:35;1.52;;;1.40;;
68225;SDS011;55045;49.410;11.030;2023-02-04T12:54:43;3.47;;;1.67;;
68225;SDS011;55045;49.410;11.030;2023-02-04T12:57:53;2.13;;;1.60;;
68225;SDS011;55045;49.410;11.030;2023-02-04T13:00:59;1.75;;;1.30;;
68225;SDS011;55045;49.410;11.030;2023-02-04T13:04:05;1.40;;;1.30;;
68225;SDS011;55045;49.410;11.030;2023-02-04T13:07:08;1.35;;;1.25;;
68225;SDS011;55045;49.410;11.030;2023-02-04T13:10:13;1.58;;;1.33;;
68225;SDS011;55045;49.410;11.030;2023-02-04T13:13:23;1.20;;;1.10;;
68225;SDS011;55045;49.410;11.030;2023-02-04T13:16:28;1.40;;;1.30;;
68225;SDS011;55045;49.410;11.030;2023-02-04T13:19:36;1.40;;;1.30;;
68225;SDS011;55045;49.410;11.030;2023-02-04T13:22:46;1.67;;;1.30;;
68225;SDS011;55045;49.410;11.030;2023-02-04T13:25:50;1.17;;;1.10;;
68225;SDS011;55045;49.410;11.030;2023-02-04T13:29:25;0.95;;;0.93;;
68225;SDS011;55045;49.410;11.030;2023-02-04T13:32:31;1.30;;;1.20;;
68225;SDS011;55045;49.410;11.030;2023-02-04T13:35:34;2.78;;;1.73;;
68225;SDS011;55045;49.410;11.030;2023-02-04T13:38:42;2.78;;;1.67;;
68225;SDS011;55045;49.410;11.030;2023-02-04T13:41:45;1.30;;;1.20;;
68225;SDS011;55045;49.410;11.030;2023-02-04T13:44:50;1.35;;;1.10;;
68225;SDS011;55045;49.410;11.030;2023-02-04T13:47:56;1.27;;;0.95;;
68225;SDS011;55045;49.410;11.030;2023-02-04T13:50:59;1.20;;;1.10;;
68225;SDS011;55045;49.410;11.030;2023-02-04T13:54:02;1.05;;;0.98;;
68225;SDS011;55045;49.410;11.030;2023-02-04T13:57:11;1.00;;;1.00;;
68225;SDS011;55045;49.410;11.030;2023-02-04T14:00:21;2.28;;;0.90;;
68225;SDS011;55045;49.410;11.030;2023-02-04T14:03:38;0.90;;;0.90;;
68225;SDS011;55045;49.410;11.030;2023-02-04T14:06:42;2.92;;;1.30;;
68225;SDS011;55045;49.410;11.030;2023-02-04T14:09:45;63.45;;;14.77;;
68225;SDS011;55045;49.410;11.030;2023-02-04T14:12:49;1.52;;;1.00;;
68225;SDS011;55045;49.410;11.030;2023-02-04T14:15:56;1.23;;;0.90;;
68225;SDS011;55045;49.410;11.030;2023-02-04T14:19:07;1.63;;;0.80;;
68225;SDS011;55045;49.410;11.030;2023-02-04T14:22:11;0.93;;;0.90;;
68225;SDS011;55045;49.410;11.030;2023-02-04T14:25:16;1.52;;;0.90;;
68225;SDS011;55045;49.410;11.030;2023-02-04T14:28:23;0.90;;;0.90;;
68225;SDS011;55045;49.410;11.030;2023-02-04T14:31:28;1.13;;;1.00;;
68225;SDS011;55045;49.410;11.030;2023-02-04T14:34:34;1.27;;;0.98;;
68225;SDS011;55045;49.410;11.030;2023-02-04T14:37:48;1.20;;;1.20;;
68225;SDS011;55045;49.410;11.030;2023-02-04T14:40:52;3.40;;;1.20;;
68225;SDS011;55045;49.410;11.030;2023-02-04T14:43:55;1.45;;;1.27;;
68225;SDS011;55045;49.410;11.030;2023-02-04T14:47:00;1.23;;;1.10;;
68225;SDS011;55045;49.410;11.030;2023-02-04T14:50:04;2.33;;;1.08;;
68225;SDS011;55045;49.410;11.030;2023-02-04T14:53:10;1.70;;;1.23;;
68225;SDS011;55045;49.410;11.030;2023-02-04T14:56:13;2.03;;;1.20;;
68225;SDS011;55045;49.410;11.030;2023-02-04T14:59:17;2.50;;;1.13;;
68225;SDS011;55045;49.410;11.030;2023-02-04T15:02:22;2.33;;;1.00;;
68225;SDS011;55045;49.410;11.030;2023-02-04T15:05:25;1.40;;;1.10;;
68225;SDS011;55045;49.410;11.030;2023-02-04T15:08:29;1.27;;;1.17;;
68225;SDS011;55045;49.410;11.030;2023-02-04T15:11:33;1.20;;;1.13;;
68225;SDS011;55045;49.410;11.030;2023-02-04T15:18:06;1.80;;;1.10;;
68225;SDS011;55045;49.410;11.030;2023-02-04T15:21:15;4.78;;;1.27;;
68225;SDS011;55045;49.410;11.030;2023-02-04T15:24:19;2.47;;;1.65;;
68225;SDS011;55045;49.410;11.030;2023-02-04T15:27:24;1.40;;;1.15;;
68225;SDS011;55045;49.410;11.030;2023-02-04T15:30:27;2.33;;;1.40;;
68225;SDS011;55045;49.410;11.030;2023-02-04T15:37:12;4.07;;;1.13;;
68225;SDS011;55045;49.410;11.030;2023-02-04T15:40:17;3.08;;;1.25;;
68225;SDS011;55045;49.410;11.030;2023-02-04T15:43:20;2.42;;;1.15;;
68225;SDS011;55045;49.410;11.030;2023-02-04T15:46:39;1.25;;;1.10;;
68225;SDS011;55045;49.410;11.030;2023-02-04T15:49:45;1.30;;;1.10;;
68225;SDS011;55045;49.410;11.030;2023-02-04T15:53:17;1.33;;;1.17;;
68225;SDS011;55045;49.410;11.030;2023-02-04T15:56:24;1.63;;;1.20;;
68225;SDS011;55045;49.410;11.030;2023-02-04T15:59:33;2.15;;;1.40;;
68225;SDS011;55045;49.410;11.030;2023-02-04T16:02:46;4.10;;;2.00;;
68225;SDS011;55045;49.410;11.030;2023-02-04T16:06:01;2.35;;;2.15;;
68225;SDS011;55045;49.410;11.030;2023-02-04T16:09:17;1.80;;;1.70;;
68225;SDS011;55045;49.410;11.030;2023-02-04T16:12:26;2.22;;;1.70;;
68225;SDS011;55045;49.410;11.030;2023-02-04T16:15:39;2.67;;;2.10;;
68225;SDS011;55045;49.410;11.030;2023-02-04T16:18:48;1.63;;;1.50;;
68225;SDS011;55045;49.410;11.030;2023-02-04T16:21:57;1.70;;;1.60;;
68225;SDS011;55045;49.410;11.030;2023-02-04T16:25:02;5.35;;;2.28;;
68225;SDS011;55045;49.410;11.030;2023-02-04T16:28:10;4.75;;;3.10;;
68225;SDS011;55045;49.410;11.030;2023-02-04T16:34:25;4.38;;;2.45;;
68225;SDS011;55045;49.410;11.030;2023-02-04T16:37:30;2.30;;;2.10;;
68225;SDS011;55045;49.410;11.030;2023-02-04T16:40:42;3.38;;;2.75;;
68225;SDS011;55045;49.410;11.030;2023-02-04T16:43:47;3.10;;;2.72;;
68225;SDS011;55045;49.410;11.030;2023-02-04T16:46:54;3.70;;;2.33;;
68225;SDS011;55045;49.410;11.030;2023-02-04T16:49:59;2.90;;;2.60;;
68225;SDS011;55045;49.410;11.030;2023-02-04T16:53:12;5.03;;;3.72;;
68225;SDS011;55045;49.410;11.030;2023-02-04T16:56:17;2.90;;;2.60;;
68225;SDS011;55045;49.410;11.030;2023-02-04T16:59:22;3.85;;;3.25;;
68225;SDS011;55045;49.410;11.030;2023-02-04T17:02:29;5.65;;;4.40;;
68225;SDS011;55045;49.410;11.030;2023-02-04T17:05:40;5.20;;;3.30;;
68225;SDS011;55045;49.410;11.030;2023-02-04T17:09:06;7.63;;;4.10;;
68225;SDS011;55045;49.410;11.030;2023-02-04T17:12:10;4.18;;;2.90;;
68225;SDS011;55045;49.410;11.030;2023-02-04T17:15:14;3.92;;;3.25;;
68225;SDS011;55045;49.410;11.030;2023-02-04T17:18:17;4.65;;;3.70;;
68225;SDS011;55045;49.410;11.030;2023-02-04T17:21:44;4.70;;;3.53;;
68225;SDS011;55045;49.410;11.030;2023-02-04T17:25:09;4.10;;;3.65;;
68225;SDS011;55045;49.410;11.030;2023-02-04T17:28:32;7.10;;;4.28;;
68225;SDS011;55045;49.410;11.030;2023-02-04T17:31:55;6.70;;;3.95;;
68225;SDS011;55045;49.410;11.030;2023-02-04T17:35:18;5.35;;;3.72;;
68225;SDS011;55045;49.410;11.030;2023-02-04T17:38:42;4.50;;;3.63;;
68225;SDS011;55045;49.410;11.030;2023-02-04T17:42:05;5.10;;;3.22;;
68225;SDS011;55045;49.410;11.030;2023-02-04T17:48:15;5.82;;;3.42;;
68225;SDS011;55045;49.410;11.030;2023-02-04T17:51:38;5.53;;;4.30;;
68225;SDS011;55045;49.410;11.030;2023-02-04T17:55:01;8.18;;;4.28;;
68225;SDS011;55045;49.410;11.030;2023-02-04T17:58:31;8.75;;;5.82;;
68225;SDS011;55045;49.410;11.030;2023-02-04T18:03:15;6.50;;;4.90;;
68225;SDS011;55045;49.410;11.030;2023-02-04T18:06:41;10.00;;;6.20;;
68225;SDS011;55045;49.410;11.030;2023-02-04T18:10:09;15.52;;;12.13;;
68225;SDS011;55045;49.410;11.030;2023-02-04T18:13:40;11.93;;;9.35;;
68225;SDS011;55045;49.410;11.030;2023-02-04T18:18:18;8.85;;;7.65;;
68225;SDS011;55045;49.410;11.030;2023-02-04T18:21:47;9.48;;;7.47;;
68225;SDS011;55045;49.410;11.030;2023-02-04T18:25:12;15.70;;;10.85;;
68225;SDS011;55045;49.410;11.030;2023-02-04T18:28:42;13.07;;;9.68;;
68225;SDS011;55045;49.410;11.030;2023-02-04T18:33:17;14.43;;;9.63;;
68225;SDS011;55045;49.410;11.030;2023-02-04T18:39:45;21.98;;;15.88;;
68225;SDS011;55045;49.410;11.030;2023-02-04T18:43:11;17.00;;;11.57;;
68225;SDS011;55045;49.410;11.030;2023-02-04T18:52:14;24.52;;;16.17;;
68225;SDS011;55045;49.410;11.030;2023-02-04T18:55:40;28.75;;;20.02;;
68225;SDS011;55045;49.410;11.030;2023-02-04T18:58:45;34.15;;;21.83;;
68225;SDS011;55045;49.410;11.030;2023-02-04T19:01:50;33.97;;;22.75;;
68225;SDS011;55045;49.410;11.030;2023-02-04T19:04:53;37.55;;;24.60;;
68225;SDS011;55045;49.410;11.030;2023-02-04T19:08:23;37.85;;;23.08;;
68225;SDS011;55045;49.410;11.030;2023-02-04T19:11:30;35.88;;;22.73;;
68225;SDS011;55045;49.410;11.030;2023-02-04T19:14:38;39.17;;;23.75;;
68225;SDS011;55045;49.410;11.030;2023-02-04T19:17:42;35.08;;;23.00;;
68225;SDS011;55045;49.410;11.030;2023-02-04T19:20:45;36.83;;;24.73;;
68225;SDS011;55045;49.410;11.030;2023-02-04T19:23:50;35.97;;;24.70;;